Jean De La Valette — 9HA2063 — position and weather

sailwx.info

Track history (hours):
 
Tides and Currents Weather Stations Pressure Air Temp Water Temp Dewpoint Dewpoint Depression Visibility Wind Speed Wind Dir Waves Ship Positions

Jean De La Valette

Last reported at 2017-Dec-18 05:50 UTC. Time now 2017-Dec-18 14:54 UTC.
Position N 36°02' E 014°35'.

Length 107 m; draft 3.3 m.

Type: High speed craft. MMSI: 249898000.

Date/timePositionNaut miles runAvg speedWind from/ knotsBaromVisibWave heightAir tempDewpointWater temp
2017-Dec-18 05:50N 36°02' E 014°35'9 0.9
2017-Dec-17 20:29N 35°54' E 014°32'1428.1
2017-Dec-17 19:59N 36°08' E 014°35'6 0.4
2017-Dec-17 05:53N 36°02' E 014°35'8 0.9
2017-Dec-16 21:30N 35°54' E 014°32'1725.6
2017-Dec-16 20:50N 36°11' E 014°38'2 0.3
2017-Dec-16 12:56N 36°13' E 014°39'1023.6
2017-Dec-16 12:29N 36°03' E 014°35'9 3.6
2017-Dec-16 09:59N 35°54' E 014°32'1528.3
2017-Dec-16 09:28N 36°08' E 014°37'6 1.3
2017-Dec-16 04:23N 36°02' E 014°35'8 2.8
2017-Dec-16 01:36N 35°54' E 014°32'330.7
2017-Dec-16 01:30N 35°57' E 014°34'612.1
2017-Dec-16 01:00N 36°02' E 014°30'  
2017-Dec-12 08:33N 35°54' E 014°32'1 8.5
2017-Dec-12 08:29N 35°55' E 014°32'1 0.9
2017-Dec-12 07:56N 35°55' E 014°33'410.0
2017-Dec-12 07:29N 35°59' E 014°34'916.7
2017-Dec-12 06:59N 36°07' E 014°37'2 2.3
2017-Dec-12 06:03N 36°10' E 014°37'226.8
2017-Dec-12 05:59N 36°08' E 014°37'14 1.1
2017-Dec-11 16:22N 35°54' E 014°32'923.6
2017-Dec-11 16:00N 36°02' E 014°36'2 0.2
2017-Dec-11 05:49N 36°01' E 014°34'7 0.7
2017-Dec-10 20:39N 35°54' E 014°32'324.1
2017-Dec-10 20:31N 35°58' E 014°34'14 3.1
2017-Dec-10 15:53N 36°11' E 014°38'1128.1
2017-Dec-10 15:30N 36°01' E 014°34'7 4.6
2017-Dec-10 13:59N 35°54' E 014°32'1825.8
2017-Dec-10 13:17N 36°11' E 014°38'7 1.0
2017-Dec-10 06:30N 36°17' E 014°33'1526.0
2017-Dec-10 05:56N 36°02' E 014°35'8 0.4
2017-Dec-09 10:03N 35°54' E 014°32'124.0
2017-Dec-09 10:00N 35°56' E 014°32'1727.4
2017-Dec-09 09:23N 36°12' E 014°40'3 0.6
2017-Dec-09 04:47N 36°10' E 014°37'827.1
2017-Dec-09 04:29N 36°02' E 014°34'8 1.1
2017-Dec-08 21:32N 35°55' E 014°32'125.4
2017-Dec-08 21:30N 35°56' E 014°32'1325.4
2017-Dec-08 21:00N 36°08' E 014°36'  
Track history (hours):
 
Tides and Currents Weather Stations Pressure Air Temp Water Temp Dewpoint Dewpoint Depression Visibility Wind Speed Wind Dir Waves Ship Positions

Jean De La Valette

Last reported at 2017-Dec-18 05:50 UTC. Time now 2017-Dec-18 14:54 UTC.
Position N 36°02' E 014°35'.

Length 107 m; draft 3.3 m.

Type: High speed craft. MMSI: 249898000.

Date/timePositionNaut miles runAvg speedWind from/ knotsBaromVisibWave heightAir tempDewpointWater temp
2017-Dec-18 05:50N 36°02' E 014°35'9 0.9
2017-Dec-17 20:29N 35°54' E 014°32'1428.1
2017-Dec-17 19:59N 36°08' E 014°35'6 0.4
2017-Dec-17 05:53N 36°02' E 014°35'8 0.9
2017-Dec-16 21:30N 35°54' E 014°32'1725.6
2017-Dec-16 20:50N 36°11' E 014°38'2 0.3
2017-Dec-16 12:56N 36°13' E 014°39'1023.6
2017-Dec-16 12:29N 36°03' E 014°35'9 3.6
2017-Dec-16 09:59N 35°54' E 014°32'1528.3
2017-Dec-16 09:28N 36°08' E 014°37'6 1.3
2017-Dec-16 04:23N 36°02' E 014°35'8 2.8
2017-Dec-16 01:36N 35°54' E 014°32'330.7
2017-Dec-16 01:30N 35°57' E 014°34'612.1
2017-Dec-16 01:00N 36°02' E 014°30'  
2017-Dec-12 08:33N 35°54' E 014°32'1 8.5
2017-Dec-12 08:29N 35°55' E 014°32'1 0.9
2017-Dec-12 07:56N 35°55' E 014°33'410.0
2017-Dec-12 07:29N 35°59' E 014°34'916.7
2017-Dec-12 06:59N 36°07' E 014°37'2 2.3
2017-Dec-12 06:03N 36°10' E 014°37'226.8
2017-Dec-12 05:59N 36°08' E 014°37'14 1.1
2017-Dec-11 16:22N 35°54' E 014°32'923.6
2017-Dec-11 16:00N 36°02' E 014°36'2 0.2
2017-Dec-11 05:49N 36°01' E 014°34'7 0.7
2017-Dec-10 20:39N 35°54' E 014°32'324.1
2017-Dec-10 20:31N 35°58' E 014°34'14 3.1
2017-Dec-10 15:53N 36°11' E 014°38'1128.1
2017-Dec-10 15:30N 36°01' E 014°34'7 4.6
2017-Dec-10 13:59N 35°54' E 014°32'1825.8
2017-Dec-10 13:17N 36°11' E 014°38'7 1.0
2017-Dec-10 06:30N 36°17' E 014°33'1526.0
2017-Dec-10 05:56N 36°02' E 014°35'8 0.4
2017-Dec-09 10:03N 35°54' E 014°32'124.0
2017-Dec-09 10:00N 35°56' E 014°32'1727.4
2017-Dec-09 09:23N 36°12' E 014°40'3 0.6
2017-Dec-09 04:47N 36°10' E 014°37'827.1
2017-Dec-09 04:29N 36°02' E 014°34'8 1.1
2017-Dec-08 21:32N 35°55' E 014°32'125.4
2017-Dec-08 21:30N 35°56' E 014°32'1325.4
2017-Dec-08 21:00N 36°08' E 014°36'  

Dump ship's entire track history